createdAt,value
2018-06-04T00:00:56.385Z,70.72
2018-06-04T00:03:24.462Z,70.22
2018-06-04T00:05:52.549Z,70.49
2018-06-04T00:08:20.629Z,70.34
2018-06-04T00:10:48.700Z,70.38
2018-06-04T00:13:16.756Z,70.45
2018-06-04T00:15:44.828Z,70.43
2018-06-04T00:18:12.901Z,70.35
2018-06-04T00:20:40.974Z,70.50
2018-06-04T00:23:09.063Z,70.73
2018-06-04T00:25:37.130Z,70.74
2018-06-04T00:28:05.203Z,70.71
2018-06-04T00:30:33.269Z,70.56
2018-06-04T00:33:01.336Z,70.86
2018-06-04T00:35:29.384Z,70.78
2018-06-04T00:37:57.440Z,70.90
2018-06-04T00:40:25.501Z,71.32
2018-06-04T00:42:53.570Z,71.28
2018-06-04T00:45:21.620Z,71.44
2018-06-04T00:47:49.693Z,71.40
2018-06-04T00:50:17.760Z,71.56
2018-06-04T00:52:45.829Z,71.63
2018-06-04T00:55:13.881Z,71.56
2018-06-04T00:57:41.956Z,71.42
2018-06-04T01:00:10.002Z,71.39
2018-06-04T01:02:38.100Z,71.43
2018-06-04T01:05:06.166Z,71.32
2018-06-04T01:07:34.236Z,71.70
2018-06-04T01:10:02.288Z,71.53
2018-06-04T01:12:30.352Z,71.71
2018-06-04T01:14:58.415Z,71.72
2018-06-04T01:17:26.534Z,71.35
2018-06-04T01:19:54.580Z,71.82
2018-06-04T01:22:22.649Z,71.70
2018-06-04T01:24:50.692Z,72.07
2018-06-04T01:27:18.748Z,71.79
2018-06-04T01:29:46.795Z,72.01
2018-06-04T01:32:14.872Z,72.24
2018-06-04T01:34:42.960Z,72.41
2018-06-04T01:37:11.017Z,72.17
2018-06-04T01:39:39.060Z,72.41
2018-06-04T01:42:07.115Z,72.47
2018-06-04T01:44:35.172Z,72.46
2018-06-04T01:47:03.217Z,72.42
2018-06-04T01:49:31.271Z,72.69
2018-06-04T01:51:59.317Z,73.03
2018-06-04T01:54:27.381Z,73.23
2018-06-04T01:56:55.421Z,73.41
2018-06-04T01:59:23.476Z,73.25
2018-06-04T02:01:51.760Z,73.46
2018-06-04T02:04:19.807Z,73.85
2018-06-04T02:06:47.889Z,73.67
2018-06-04T02:09:16.029Z,73.85
2018-06-04T02:11:44.104Z,73.65
2018-06-04T02:14:12.160Z,73.68
2018-06-04T02:16:40.209Z,73.80
2018-06-04T02:19:08.269Z,74.05
2018-06-04T02:21:36.327Z,74.13
2018-06-04T02:24:04.408Z,74.11
2018-06-04T02:26:32.468Z,74.15
2018-06-04T02:29:00.574Z,74.21
2018-06-04T02:31:28.604Z,74.12
2018-06-04T02:33:56.667Z,74.27
2018-06-04T02:36:24.720Z,74.47
2018-06-04T02:38:52.784Z,74.14
2018-06-04T02:41:20.834Z,74.44
2018-06-04T02:43:48.876Z,74.46
2018-06-04T02:46:16.953Z,74.03
2018-06-04T02:48:45.006Z,74.21
2018-06-04T02:51:13.069Z,73.78
2018-06-04T02:53:41.116Z,74.13
2018-06-04T02:56:09.165Z,73.71
2018-06-04T02:58:37.219Z,73.92
2018-06-04T03:01:05.290Z,73.92
2018-06-04T03:03:33.353Z,73.67
2018-06-04T03:06:01.405Z,73.82
2018-06-04T03:08:29.480Z,73.84
2018-06-04T03:10:57.528Z,73.51
2018-06-04T03:13:25.590Z,74.02
2018-06-04T03:15:53.664Z,73.73
2018-06-04T03:18:21.724Z,73.93
2018-06-04T03:20:49.785Z,73.90
2018-06-04T03:23:17.837Z,74.02
2018-06-04T03:25:45.881Z,73.64
2018-06-04T03:28:13.931Z,73.66
2018-06-04T03:30:41.981Z,73.72
2018-06-04T03:33:10.017Z,73.86
2018-06-04T03:35:38.077Z,73.47
2018-06-04T03:38:06.117Z,73.76
2018-06-04T03:40:34.184Z,73.48
2018-06-04T03:43:02.243Z,73.70
2018-06-04T03:45:30.302Z,73.69
2018-06-04T03:47:58.341Z,73.40
2018-06-04T03:50:26.397Z,73.58
2018-06-04T03:52:54.451Z,73.58
2018-06-04T03:55:22.500Z,73.27
2018-06-04T03:57:50.539Z,73.34
2018-06-04T04:00:18.598Z,72.71
2018-06-04T04:02:46.645Z,72.64
2018-06-04T04:05:14.693Z,72.88
2018-06-04T04:07:42.745Z,72.92
2018-06-04T04:10:10.838Z,72.66
2018-06-04T04:12:38.884Z,72.75
2018-06-04T04:15:06.952Z,72.13
2018-06-04T04:17:35.003Z,72.18
2018-06-04T04:20:03.056Z,72.21
2018-06-04T04:22:31.128Z,72.64
2018-06-04T04:24:59.177Z,72.54
2018-06-04T04:27:27.229Z,72.13
2018-06-04T04:29:55.278Z,71.82
2018-06-04T04:32:23.320Z,71.93
2018-06-04T04:34:51.369Z,72.04
2018-06-04T04:37:19.406Z,71.32
2018-06-04T04:39:47.452Z,71.75
2018-06-04T04:42:15.496Z,71.77
2018-06-04T04:44:43.547Z,71.57
2018-06-04T04:47:11.588Z,71.56
2018-06-04T04:49:39.638Z,71.50
2018-06-04T04:52:07.720Z,71.46
2018-06-04T04:54:35.765Z,71.66
2018-06-04T04:57:03.805Z,71.04
2018-06-04T04:59:31.869Z,71.03
2018-06-04T05:01:59.897Z,71.18
2018-06-04T05:04:27.946Z,71.30
2018-06-04T05:06:55.990Z,70.92
2018-06-04T05:09:24.029Z,71.42
2018-06-04T05:11:52.064Z,71.31
2018-06-04T05:14:20.104Z,71.12
2018-06-04T05:16:48.137Z,70.95
2018-06-04T05:19:16.201Z,71.30
2018-06-04T05:21:44.257Z,71.14
2018-06-04T05:24:12.312Z,70.70
2018-06-04T05:26:40.363Z,70.30
2018-06-04T05:29:08.404Z,70.24
2018-06-04T05:31:36.444Z,69.89
2018-06-04T05:34:04.526Z,69.93
2018-06-04T05:36:32.599Z,70.04
2018-06-04T05:39:00.705Z,70.15
2018-06-04T05:41:28.749Z,70.32
2018-06-04T05:43:56.824Z,70.20
2018-06-04T05:46:24.892Z,70.50
2018-06-04T05:48:52.964Z,70.07
2018-06-04T05:51:21.000Z,70.05
2018-06-04T05:53:49.081Z,70.09
2018-06-04T05:56:17.197Z,70.08
2018-06-04T05:58:45.232Z,70.00
2018-06-04T06:01:13.290Z,69.96
2018-06-04T06:03:41.345Z,70.39
2018-06-04T06:06:09.404Z,69.79
2018-06-04T06:08:37.438Z,69.96
2018-06-04T06:11:05.500Z,69.37
2018-06-04T06:13:33.548Z,70.03
2018-06-04T06:16:01.611Z,69.56
2018-06-04T06:18:29.668Z,69.85
2018-06-04T06:20:57.773Z,69.73
2018-06-04T06:23:25.800Z,70.24
2018-06-04T06:25:53.842Z,70.14
2018-06-04T06:28:21.875Z,70.22
2018-06-04T06:30:50.118Z,69.89
2018-06-04T06:33:18.138Z,69.91
2018-06-04T06:35:46.197Z,69.83
2018-06-04T06:38:14.286Z,69.91
2018-06-04T06:40:42.344Z,69.92
2018-06-04T06:43:10.445Z,70.11
2018-06-04T06:45:38.504Z,69.56
2018-06-04T06:48:06.602Z,69.62
2018-06-04T06:50:34.652Z,69.63
2018-06-04T06:53:02.717Z,69.65
2018-06-04T06:55:30.833Z,69.32
2018-06-04T06:57:58.877Z,69.26
2018-06-04T07:00:26.928Z,69.63
2018-06-04T07:02:54.971Z,69.20
2018-06-04T07:05:23.022Z,69.18
2018-06-04T07:07:51.052Z,69.25
2018-06-04T07:10:19.100Z,68.47
2018-06-04T07:12:47.150Z,69.01
2018-06-04T07:15:15.207Z,69.14
2018-06-04T07:17:43.267Z,69.30
2018-06-04T07:20:11.322Z,69.48
2018-06-04T07:22:39.385Z,68.99
2018-06-04T07:25:07.512Z,68.99
2018-06-04T07:27:35.558Z,69.48
2018-06-04T07:30:03.610Z,69.59
2018-06-04T07:32:31.676Z,69.44
2018-06-04T07:34:59.755Z,69.71
2018-06-04T07:37:27.884Z,69.86
2018-06-04T07:39:55.952Z,69.73
2018-06-04T07:42:24.012Z,69.92
2018-06-04T07:44:52.068Z,69.57
2018-06-04T07:47:20.103Z,69.37
2018-06-04T07:49:48.200Z,69.25
2018-06-04T07:52:16.231Z,69.46
2018-06-04T07:54:44.395Z,69.32
2018-06-04T07:57:12.431Z,69.31
2018-06-04T07:59:40.485Z,69.39
2018-06-04T08:02:08.530Z,69.12
2018-06-04T08:04:36.644Z,69.10
2018-06-04T08:07:04.693Z,69.30
2018-06-04T08:09:32.744Z,68.98
2018-06-04T08:12:00.798Z,69.24
2018-06-04T08:14:28.841Z,69.39
2018-06-04T08:16:56.897Z,69.32
2018-06-04T08:19:24.957Z,69.22
2018-06-04T08:21:53.068Z,69.28
2018-06-04T08:24:21.121Z,68.47
2018-06-04T08:26:49.165Z,69.58
2018-06-04T08:29:17.231Z,68.86
2018-06-04T08:31:45.287Z,68.82
2018-06-04T08:34:13.323Z,69.23
2018-06-04T08:36:41.369Z,68.30
2018-06-04T08:39:09.412Z,68.53
2018-06-04T08:41:37.471Z,68.86
2018-06-04T08:44:05.514Z,68.81
2018-06-04T08:46:33.569Z,69.07
2018-06-04T08:49:01.620Z,69.22
2018-06-04T08:51:29.691Z,69.47
2018-06-04T08:53:57.733Z,68.98
2018-06-04T08:56:25.865Z,68.99
2018-06-04T08:58:53.883Z,68.62
2018-06-04T09:01:21.929Z,68.52
2018-06-04T09:03:50.049Z,68.72
2018-06-04T09:06:18.097Z,68.87
2018-06-04T09:08:46.163Z,68.59
2018-06-04T09:11:14.239Z,69.25
2018-06-04T09:13:42.294Z,68.74
2018-06-04T09:16:10.352Z,69.30
2018-06-04T09:18:38.406Z,69.44
2018-06-04T09:21:06.500Z,69.24
2018-06-04T09:23:34.566Z,69.24
2018-06-04T09:26:02.690Z,69.46
2018-06-04T09:28:30.991Z,69.72
2018-06-04T09:30:59.063Z,69.30
2018-06-04T09:33:27.119Z,69.68
2018-06-04T09:35:55.224Z,69.58
2018-06-04T09:38:23.321Z,69.29
2018-06-04T09:40:51.481Z,69.29
2018-06-04T09:43:19.551Z,69.21
2018-06-04T09:45:47.598Z,69.01
2018-06-04T09:48:15.673Z,68.81
2018-06-04T09:50:43.732Z,69.04
2018-06-04T09:53:11.822Z,69.19
2018-06-04T09:55:39.875Z,68.64
2018-06-04T09:58:07.937Z,68.49
2018-06-04T10:00:36.361Z,68.55
2018-06-04T10:03:05.004Z,68.20
2018-06-04T10:05:33.056Z,67.87
2018-06-04T10:08:01.155Z,68.01
2018-06-04T10:10:29.231Z,67.54
2018-06-04T10:12:57.322Z,68.20
2018-06-04T10:15:25.372Z,67.95
2018-06-04T10:17:53.429Z,67.50
2018-06-04T10:20:21.512Z,67.56
2018-06-04T10:22:49.583Z,67.51
2018-06-04T10:25:18.138Z,67.40
2018-06-04T10:27:46.229Z,66.93
2018-06-04T10:30:14.306Z,66.45
2018-06-04T10:32:42.395Z,66.58
2018-06-04T10:35:10.433Z,66.14
2018-06-04T10:37:38.497Z,66.23
2018-06-04T10:40:06.560Z,66.12
2018-06-04T10:42:34.628Z,66.43
2018-06-04T10:45:02.670Z,65.95
2018-06-04T10:47:30.719Z,65.50
2018-06-04T10:49:58.789Z,65.42
2018-06-04T10:52:26.868Z,65.51
2018-06-04T10:54:54.901Z,65.44
2018-06-04T10:57:22.972Z,65.38
2018-06-04T10:59:51.046Z,65.57
2018-06-04T11:02:19.093Z,65.36
2018-06-04T11:04:47.183Z,65.49
2018-06-04T11:07:15.285Z,65.57
2018-06-04T11:09:43.343Z,65.40
2018-06-04T11:12:11.396Z,65.38
2018-06-04T11:14:39.436Z,65.76
2018-06-04T11:17:07.508Z,65.25
2018-06-04T11:19:35.549Z,65.51
2018-06-04T11:22:03.609Z,66.08
2018-06-04T11:24:31.673Z,66.06
2018-06-04T11:26:59.722Z,65.92
2018-06-04T11:29:27.780Z,65.70
2018-06-04T11:31:55.841Z,65.86
2018-06-04T11:34:23.880Z,65.36
2018-06-04T11:36:51.927Z,65.24
2018-06-04T11:39:20.012Z,65.38
2018-06-04T11:41:48.055Z,64.96
2018-06-04T11:44:16.095Z,65.17
2018-06-04T11:46:44.174Z,65.55
2018-06-04T11:49:12.221Z,65.72
2018-06-04T11:51:40.271Z,65.04
2018-06-04T11:54:08.364Z,65.83
2018-06-04T11:56:36.436Z,65.13
2018-06-04T11:59:04.464Z,65.34
2018-06-04T12:01:32.504Z,65.30
2018-06-04T12:04:00.564Z,65.08
2018-06-04T12:06:28.624Z,65.10
2018-06-04T12:08:56.709Z,65.56
2018-06-04T12:11:24.811Z,65.13
2018-06-04T12:13:52.849Z,65.14
2018-06-04T12:16:20.903Z,64.86
2018-06-04T12:18:48.952Z,64.60
2018-06-04T12:21:17.011Z,65.19
2018-06-04T12:23:45.072Z,64.12
2018-06-04T12:26:13.120Z,63.62
2018-06-04T12:28:41.172Z,64.15
2018-06-04T12:31:09.220Z,64.12
2018-06-04T12:33:37.291Z,63.66
2018-06-04T12:36:05.848Z,63.57
2018-06-04T12:38:33.970Z,63.66
2018-06-04T12:41:08.478Z,64.15
2018-06-04T12:43:36.521Z,63.71
2018-06-04T12:46:04.575Z,63.59
2018-06-04T12:48:32.640Z,63.42
2018-06-04T12:51:00.679Z,63.22
2018-06-04T12:53:28.733Z,63.43
2018-06-04T12:55:59.850Z,63.75
2018-06-04T12:58:27.927Z,63.83
2018-06-04T13:00:55.967Z,64.09
2018-06-04T13:03:24.055Z,63.91
2018-06-04T13:05:52.100Z,63.75
2018-06-04T13:08:20.149Z,63.40
2018-06-04T13:10:48.193Z,63.79
2018-06-04T13:13:16.262Z,63.81
2018-06-04T13:15:44.309Z,63.38
2018-06-04T13:18:12.368Z,63.91
2018-06-04T13:20:40.419Z,63.94
2018-06-04T13:23:08.484Z,63.87
2018-06-04T13:25:36.523Z,63.46
2018-06-04T13:28:04.666Z,63.42
2018-06-04T13:30:32.728Z,64.17
2018-06-04T13:33:00.792Z,63.66
2018-06-04T13:35:28.848Z,64.27
2018-06-04T13:37:56.898Z,63.47
2018-06-04T13:40:25.052Z,63.57
2018-06-04T13:42:53.120Z,64.05
2018-06-04T13:45:21.164Z,63.52
2018-06-04T13:47:49.895Z,63.63
2018-06-04T13:50:17.977Z,64.02
2018-06-04T13:52:46.015Z,63.67
2018-06-04T13:55:14.073Z,63.82
2018-06-04T13:57:42.111Z,64.10
2018-06-04T14:00:10.160Z,64.47
2018-06-04T14:02:38.216Z,64.47
2018-06-04T14:05:06.260Z,64.58
2018-06-04T14:07:34.323Z,64.90
2018-06-04T14:10:02.377Z,64.52
2018-06-04T14:12:30.430Z,65.37
2018-06-04T14:14:58.495Z,66.01
2018-06-04T14:17:26.549Z,65.93
2018-06-04T14:19:54.602Z,65.88
2018-06-04T14:22:22.657Z,65.12
2018-06-04T14:24:50.769Z,65.35
2018-06-04T14:27:18.836Z,65.39
2018-06-04T14:29:46.900Z,64.84
2018-06-04T14:32:14.967Z,65.23
2018-06-04T14:34:43.023Z,65.00
2018-06-04T14:37:11.091Z,64.89
2018-06-04T14:39:39.143Z,65.23
2018-06-04T14:42:07.207Z,65.54
2018-06-04T14:44:35.288Z,65.60
2018-06-04T14:47:03.369Z,65.34
2018-06-04T14:49:31.442Z,64.41
2018-06-04T14:51:59.544Z,65.01
2018-06-04T14:54:27.637Z,64.66
2018-06-04T14:56:55.708Z,65.01
2018-06-04T14:59:23.775Z,64.76
2018-06-04T15:01:51.828Z,64.77
2018-06-04T15:04:19.954Z,64.16
2018-06-04T15:06:48.058Z,64.56
2018-06-04T15:09:16.212Z,64.52
2018-06-04T15:11:44.276Z,64.46
2018-06-04T15:14:12.353Z,64.55
2018-06-04T15:16:40.413Z,64.15
2018-06-04T15:19:08.492Z,64.45
2018-06-04T15:21:36.560Z,64.35
2018-06-04T15:24:04.667Z,64.07
2018-06-04T15:26:32.733Z,64.08
2018-06-04T15:29:00.785Z,63.56
2018-06-04T15:31:28.844Z,64.09
2018-06-04T15:33:57.033Z,63.94
2018-06-04T15:36:25.089Z,62.57
2018-06-04T15:38:53.141Z,63.37
2018-06-04T15:41:21.204Z,63.04
2018-06-04T15:43:49.296Z,62.75
2018-06-04T15:46:17.333Z,62.97
2018-06-04T15:48:45.391Z,62.70
2018-06-04T15:51:13.457Z,62.30
2018-06-04T15:53:41.503Z,62.17
2018-06-04T15:56:09.580Z,62.49
2018-06-04T15:58:37.644Z,61.16
2018-06-04T16:01:05.717Z,61.01
2018-06-04T16:03:33.764Z,61.47
2018-06-04T16:06:01.822Z,61.98
2018-06-04T16:08:29.867Z,62.27
2018-06-04T16:10:57.928Z,62.60
2018-06-04T16:13:25.968Z,62.16
2018-06-04T16:15:54.044Z,62.77
2018-06-04T16:18:22.099Z,62.42
2018-06-04T16:20:50.169Z,62.03
2018-06-04T16:23:18.256Z,61.88
2018-06-04T16:25:46.308Z,62.15
2018-06-04T16:28:14.412Z,62.51
2018-06-04T16:30:42.458Z,63.15
2018-06-04T16:33:10.500Z,62.76
2018-06-04T16:35:38.556Z,63.38
2018-06-04T16:38:06.603Z,63.05
2018-06-04T16:40:34.698Z,62.73
2018-06-04T16:43:02.755Z,63.09
2018-06-04T16:45:30.801Z,63.05
2018-06-04T16:47:58.888Z,62.17
2018-06-04T16:50:26.972Z,63.11
2018-06-04T16:52:54.998Z,62.61
2018-06-04T16:55:23.052Z,63.26
2018-06-04T16:57:51.119Z,62.52
2018-06-04T17:00:19.196Z,63.17
2018-06-04T17:02:47.288Z,62.79
2018-06-04T17:05:15.335Z,62.44
2018-06-04T17:07:43.400Z,62.55
2018-06-04T17:10:11.537Z,62.64
2018-06-04T17:12:39.621Z,62.54
2018-06-04T17:15:07.664Z,62.78
2018-06-04T17:17:35.717Z,63.10
2018-06-04T17:20:03.780Z,62.60
2018-06-04T17:22:31.841Z,67.84
2018-06-04T17:27:27.038Z,71.07
2018-06-04T17:29:55.121Z,68.65
2018-06-04T17:32:23.193Z,67.68
2018-06-04T17:34:51.276Z,66.75
2018-06-04T17:37:19.343Z,65.08
2018-06-04T17:39:47.387Z,64.11
2018-06-04T17:42:15.456Z,63.27
2018-06-04T17:44:43.509Z,63.32
2018-06-04T17:47:11.560Z,61.95
2018-06-04T17:49:39.599Z,61.50
2018-06-04T17:52:07.657Z,61.00
2018-06-04T17:54:35.707Z,59.38
2018-06-04T17:57:03.775Z,59.54
2018-06-04T17:59:31.848Z,59.74
2018-06-04T18:01:59.926Z,58.92
2018-06-04T18:04:28.022Z,59.41
2018-06-04T18:06:56.096Z,59.47
2018-06-04T18:09:24.145Z,60.14
2018-06-04T18:11:52.246Z,60.94
2018-06-04T18:14:20.309Z,60.83
2018-06-04T18:16:48.381Z,60.73
2018-06-04T18:19:16.443Z,60.88
2018-06-04T18:21:44.525Z,61.99
2018-06-04T18:24:12.571Z,62.62
2018-06-04T18:26:40.612Z,62.81
2018-06-04T18:29:08.660Z,62.74
2018-06-04T18:31:36.716Z,62.87
2018-06-04T18:34:04.764Z,62.91
2018-06-04T18:36:32.808Z,62.87
2018-06-04T18:39:00.891Z,63.14
2018-06-04T18:41:28.928Z,63.25
2018-06-04T18:43:57.008Z,63.56
2018-06-04T18:46:25.079Z,63.27
2018-06-04T18:48:53.134Z,63.93
2018-06-04T18:51:21.177Z,63.74
2018-06-04T18:53:49.276Z,63.00
2018-06-04T18:56:17.356Z,63.61
2018-06-04T18:58:45.408Z,64.02
2018-06-04T19:01:13.452Z,63.63
2018-06-04T19:03:41.521Z,63.83
2018-06-04T19:06:09.683Z,63.73
2018-06-04T19:08:44.610Z,64.14
2018-06-04T19:11:12.633Z,63.67
2018-06-04T19:13:40.704Z,63.79
2018-06-04T19:16:08.740Z,63.91
2018-06-04T19:18:36.804Z,64.31
2018-06-04T19:21:04.874Z,64.19
2018-06-04T19:23:32.952Z,63.99
2018-06-04T19:26:01.038Z,64.14
2018-06-04T19:28:29.101Z,64.28
2018-06-04T19:30:57.137Z,64.37
2018-06-04T19:33:25.196Z,64.46
2018-06-04T19:35:53.232Z,64.42
2018-06-04T19:38:21.322Z,64.13
2018-06-04T19:40:49.368Z,64.25
2018-06-04T19:43:17.418Z,64.37
2018-06-04T19:45:45.466Z,64.26
2018-06-04T19:48:13.516Z,64.06
2018-06-04T19:50:41.559Z,64.18
2018-06-04T19:53:09.627Z,64.04
2018-06-04T19:55:37.688Z,64.01
2018-06-04T19:58:05.833Z,64.07
2018-06-04T20:00:33.892Z,64.20
2018-06-04T20:03:02.026Z,64.10
2018-06-04T20:05:30.096Z,64.67
2018-06-04T20:07:58.984Z,64.65
2018-06-04T20:10:27.015Z,64.06
2018-06-04T20:12:55.089Z,64.29
2018-06-04T20:15:23.145Z,64.62
2018-06-04T20:17:51.228Z,64.14
2018-06-04T20:20:19.300Z,64.53
2018-06-04T20:22:47.408Z,64.52
2018-06-04T20:25:15.465Z,64.10
2018-06-04T20:27:43.520Z,64.64
2018-06-04T20:30:11.614Z,64.57
2018-06-04T20:32:39.715Z,64.54
2018-06-04T20:35:07.781Z,64.45
2018-06-04T20:37:35.837Z,64.53
2018-06-04T20:40:05.035Z,64.56
2018-06-04T20:42:33.110Z,64.24
2018-06-04T20:45:01.161Z,64.24
2018-06-04T20:47:29.215Z,64.35
2018-06-04T20:49:57.289Z,64.70
2018-06-04T20:52:25.341Z,64.71
2018-06-04T20:54:53.420Z,64.99
2018-06-04T20:57:21.473Z,64.48
2018-06-04T20:59:49.540Z,64.59
2018-06-04T21:02:17.588Z,65.12
2018-06-04T21:04:45.684Z,65.19
2018-06-04T21:07:13.740Z,65.41
2018-06-04T21:09:42.017Z,65.54
2018-06-04T21:12:12.056Z,66.07
2018-06-04T21:14:41.024Z,66.20
2018-06-04T21:17:13.245Z,66.02
2018-06-04T21:19:45.085Z,65.81
2018-06-04T21:22:13.281Z,65.84
2018-06-04T21:24:41.627Z,66.30
2018-06-04T21:27:11.827Z,66.67
2018-06-04T21:29:39.913Z,66.54
2018-06-04T21:32:07.956Z,66.27
2018-06-04T21:34:36.042Z,66.97
2018-06-04T21:37:04.088Z,66.68
2018-06-04T21:39:32.155Z,66.51
2018-06-04T21:42:00.214Z,66.68
2018-06-04T21:44:28.264Z,66.20
2018-06-04T21:46:56.324Z,66.09
2018-06-04T21:49:24.428Z,66.54
2018-06-04T21:51:52.482Z,66.65
2018-06-04T21:54:20.547Z,66.58
2018-06-04T21:56:48.582Z,66.21
2018-06-04T21:59:16.684Z,66.44
2018-06-04T22:01:44.761Z,66.46
2018-06-04T22:04:12.825Z,66.69
2018-06-04T22:06:40.881Z,66.31
2018-06-04T22:09:09.063Z,65.97
2018-06-04T22:11:37.129Z,66.76
2018-06-04T22:14:05.553Z,66.19
2018-06-04T22:16:33.596Z,66.45
2018-06-04T22:19:01.653Z,66.51
2018-06-04T22:21:29.711Z,66.21
2018-06-04T22:23:57.793Z,66.21
2018-06-04T22:26:25.840Z,66.43
2018-06-04T22:28:53.891Z,66.25
2018-06-04T22:31:21.948Z,65.92
2018-06-04T22:33:50.016Z,65.90
2018-06-04T22:36:18.054Z,66.14
2018-06-04T22:38:46.117Z,66.24
2018-06-04T22:41:14.159Z,65.99
2018-06-04T22:43:42.213Z,66.03
2018-06-04T22:46:10.255Z,65.72
2018-06-04T22:48:38.312Z,65.43
2018-06-04T22:51:06.369Z,66.08
2018-06-04T22:53:34.428Z,65.95
2018-06-04T22:56:02.500Z,66.09
2018-06-04T22:58:30.557Z,65.73
2018-06-04T23:00:58.610Z,65.80
2018-06-04T23:03:26.668Z,65.64
2018-06-04T23:05:54.741Z,65.94
2018-06-04T23:08:22.801Z,66.13
2018-06-04T23:10:50.872Z,65.88
2018-06-04T23:13:18.916Z,66.12
2018-06-04T23:15:46.979Z,65.88
2018-06-04T23:18:15.044Z,66.12
2018-06-04T23:20:43.148Z,66.07
2018-06-04T23:23:11.228Z,66.00
2018-06-04T23:25:39.314Z,65.65
2018-06-04T23:28:07.372Z,65.68
2018-06-04T23:30:35.452Z,65.69
2018-06-04T23:33:03.514Z,65.79
2018-06-04T23:35:31.583Z,65.47
2018-06-04T23:37:59.632Z,65.61
2018-06-04T23:40:27.696Z,65.58
2018-06-04T23:42:55.752Z,65.31
2018-06-04T23:45:23.804Z,65.52
2018-06-04T23:47:51.862Z,65.44
2018-06-04T23:50:19.903Z,65.84
2018-06-04T23:52:47.963Z,66.01
2018-06-04T23:55:16.029Z,65.82
2018-06-04T23:57:44.093Z,65.79
